Jump to content
Sign in to follow this  
jetbluefan

CLOSED See through clouds

Recommended Posts

KLAX metar at the time photo was taken: KLAX 151253Z 08004KT 6SM HZ FEW009 OVC012 17/13 A2992 RMK AO2 SLP132 T01670133

I'm using live auto mode. ASP4. In the main UI of EF, everything is enabled except for weather smoothing and real time weather data read.

2019-5-15_21-44-45-776.jpg

Share this post


Link to post
Share on other sites

Thanks, can you replicate this? Are you in manual or auto mode? do you have cirrus overcast enabled? Thanks

Federico

Share this post


Link to post
Share on other sites

I'm using live automation mode. The global cirrus overcast option is not enabled in the main UI.

I will post again if I can replicate this on another flight over LAX

Share this post


Link to post
Share on other sites

Thanks, I appreciate it

Federico

Share this post


Link to post
Share on other sites

People have reported this issue on the P3D forum before EF was released, and happens with default as well.

Share this post


Link to post
Share on other sites
Sign in to follow this  

  • Recently Browsing   0 members

    No registered users viewing this page.

  • See our many awards!

×
×
  • Create New...